createdAt,value
2023-03-26T00:01:29.709Z,3.50
2023-03-26T00:03:58.635Z,4.57
2023-03-26T00:06:27.733Z,3.92
2023-03-26T00:08:57.276Z,4.75
2023-03-26T00:11:25.977Z,8.20
2023-03-26T00:13:57.015Z,5.18
2023-03-26T00:16:26.060Z,5.88
2023-03-26T00:18:53.677Z,5.45
2023-03-26T00:21:22.725Z,9.18
2023-03-26T00:23:50.269Z,6.97
2023-03-26T00:26:18.867Z,6.80
2023-03-26T00:28:46.446Z,5.65
2023-03-26T00:31:16.055Z,3.58
2023-03-26T00:33:44.055Z,4.47
2023-03-26T00:36:16.654Z,3.75
2023-03-26T00:38:44.936Z,3.72
2023-03-26T00:41:22.716Z,4.85
2023-03-26T00:43:51.981Z,6.93
2023-03-26T00:46:21.193Z,3.10
2023-03-26T00:48:48.987Z,4.40
2023-03-26T00:51:17.859Z,3.65
2023-03-26T00:53:46.730Z,5.78
2023-03-26T00:56:14.768Z,5.18
2023-03-26T00:58:42.884Z,5.40
2023-03-26T01:01:13.593Z,6.57
2023-03-26T01:03:53.178Z,7.07
2023-03-26T01:06:32.748Z,5.20
2023-03-26T01:09:04.490Z,7.45
2023-03-26T01:11:33.776Z,4.57
2023-03-26T01:14:07.205Z,9.38
2023-03-26T01:16:37.911Z,6.03
2023-03-26T01:19:10.365Z,5.88
2023-03-26T01:21:39.738Z,9.88
2023-03-26T01:24:10.175Z,6.38
2023-03-26T01:27:05.983Z,7.38
2023-03-26T01:29:37.708Z,7.13
2023-03-26T01:32:13.557Z,4.95
2023-03-26T01:34:50.642Z,8.38
2023-03-26T01:37:22.952Z,6.10
2023-03-26T01:39:57.126Z,6.28
2023-03-26T01:42:30.336Z,5.05
2023-03-26T01:44:59.859Z,6.32
2023-03-26T01:47:27.477Z,5.10
2023-03-26T01:49:55.027Z,6.05
2023-03-26T01:52:26.160Z,8.48
2023-03-26T01:54:55.525Z,7.35
2023-03-26T01:57:31.194Z,6.53
2023-03-26T02:00:12.522Z,8.00
2023-03-26T02:02:48.123Z,4.53
2023-03-26T02:05:18.949Z,5.93
2023-03-26T02:07:51.160Z,5.10
2023-03-26T02:10:25.069Z,8.35
2023-03-26T02:12:53.055Z,6.03
2023-03-26T02:15:20.809Z,7.68
2023-03-26T02:17:49.332Z,14.52
2023-03-26T02:20:18.879Z,8.18
2023-03-26T02:22:47.408Z,6.13
2023-03-26T02:25:16.892Z,5.90
2023-03-26T02:27:46.453Z,6.85
2023-03-26T02:30:16.452Z,4.63
2023-03-26T02:32:44.815Z,5.28
2023-03-26T02:35:13.108Z,6.45
2023-03-26T02:37:42.094Z,8.57
2023-03-26T02:40:11.809Z,8.38
2023-03-26T02:42:39.609Z,8.80
2023-03-26T02:45:09.173Z,4.60
2023-03-26T02:47:36.713Z,5.70
2023-03-26T02:50:04.627Z,7.05
2023-03-26T02:52:33.654Z,6.85
2023-03-26T02:55:01.317Z,5.90
2023-03-26T02:57:29.125Z,5.63
2023-03-26T02:59:56.595Z,5.40
2023-03-26T03:02:25.812Z,6.90
2023-03-26T03:04:56.184Z,7.72
2023-03-26T03:07:25.159Z,4.45
2023-03-26T03:09:52.751Z,7.22
2023-03-26T03:12:20.294Z,6.38
2023-03-26T03:14:47.761Z,7.05
2023-03-26T03:17:15.471Z,11.82
2023-03-26T03:19:45.325Z,6.47
2023-03-26T03:22:12.836Z,8.13
2023-03-26T03:24:40.314Z,9.13
2023-03-26T03:27:07.780Z,8.02
2023-03-26T03:29:35.596Z,7.22
2023-03-26T03:32:03.108Z,9.82
2023-03-26T03:34:30.736Z,11.63
2023-03-26T03:36:59.584Z,17.15
2023-03-26T03:39:27.061Z,11.60
2023-03-26T03:41:54.567Z,14.10
2023-03-26T03:44:22.088Z,12.00
2023-03-26T03:46:53.951Z,16.58
2023-03-26T03:51:48.864Z,15.13
2023-03-26T03:54:17.764Z,8.07
2023-03-26T03:56:45.761Z,6.47
2023-03-26T03:59:13.259Z,8.90
2023-03-26T04:01:43.272Z,7.68
2023-03-26T04:04:10.864Z,6.30
2023-03-26T04:06:38.855Z,6.93
2023-03-26T04:09:06.351Z,7.10
2023-03-26T04:11:35.150Z,8.82
2023-03-26T04:14:02.619Z,6.28
2023-03-26T04:16:30.310Z,5.53
2023-03-26T04:18:58.336Z,8.07
2023-03-26T04:21:26.369Z,7.07
2023-03-26T04:23:54.286Z,9.00
2023-03-26T04:26:21.857Z,6.65
2023-03-26T04:28:53.355Z,4.28
2023-03-26T04:31:24.718Z,6.82
2023-03-26T04:33:54.401Z,2.72
2023-03-26T04:36:24.499Z,7.85
2023-03-26T04:38:52.004Z,5.05
2023-03-26T04:41:19.581Z,9.23
2023-03-26T04:43:50.538Z,7.72
2023-03-26T04:46:21.887Z,10.40
2023-03-26T04:48:49.812Z,7.32
2023-03-26T04:51:18.869Z,9.52
2023-03-26T04:53:51.247Z,4.25
2023-03-26T04:56:28.274Z,6.28
2023-03-26T04:58:59.775Z,8.27
2023-03-26T05:01:30.838Z,11.20
2023-03-26T05:03:59.449Z,5.38
2023-03-26T05:06:27.979Z,5.93
2023-03-26T05:08:55.638Z,5.65
2023-03-26T05:11:23.139Z,8.93
2023-03-26T05:13:50.654Z,10.50
2023-03-26T05:16:18.274Z,10.63
2023-03-26T05:18:47.726Z,7.07
2023-03-26T05:21:15.502Z,8.18
2023-03-26T05:23:42.961Z,6.38
2023-03-26T05:26:10.461Z,8.93
2023-03-26T05:28:38.253Z,8.77
2023-03-26T05:31:06.634Z,8.18
2023-03-26T05:33:34.316Z,5.72
2023-03-26T05:36:04.950Z,8.98
2023-03-26T05:38:32.885Z,5.35
2023-03-26T05:41:00.757Z,9.77
2023-03-26T05:43:28.690Z,14.70
2023-03-26T05:45:56.511Z,10.18
2023-03-26T05:48:24.704Z,12.95
2023-03-26T05:50:53.365Z,7.10
2023-03-26T05:53:23.208Z,7.15
2023-03-26T05:55:55.788Z,9.45
2023-03-26T05:58:23.233Z,10.55
2023-03-26T06:00:58.431Z,7.20
2023-03-26T06:03:26.124Z,4.30
2023-03-26T06:05:53.689Z,11.98
2023-03-26T06:08:23.035Z,7.47
2023-03-26T06:10:50.882Z,11.05
2023-03-26T06:13:19.048Z,10.48
2023-03-26T06:15:46.574Z,7.32
2023-03-26T06:18:14.142Z,14.10
2023-03-26T06:20:42.318Z,11.00
2023-03-26T06:23:09.827Z,16.00
2023-03-26T06:25:39.023Z,10.75
2023-03-26T06:28:06.916Z,10.10
2023-03-26T06:30:34.445Z,9.68
2023-03-26T06:33:01.930Z,9.82
2023-03-26T06:35:30.214Z,8.13
2023-03-26T06:37:57.773Z,7.10
2023-03-26T06:40:25.517Z,6.97
2023-03-26T06:43:09.090Z,13.02
2023-03-26T06:45:38.139Z,10.00
2023-03-26T06:48:06.292Z,5.45
2023-03-26T06:50:33.906Z,5.00
2023-03-26T06:53:01.722Z,5.45
2023-03-26T06:55:30.276Z,4.15
2023-03-26T06:57:59.117Z,4.40
2023-03-26T07:00:26.613Z,7.72
2023-03-26T07:02:54.377Z,4.82
2023-03-26T07:05:22.671Z,5.60
2023-03-26T07:07:50.591Z,5.70
2023-03-26T07:10:18.177Z,7.57
2023-03-26T07:12:46.043Z,5.25
2023-03-26T07:15:14.869Z,8.27
2023-03-26T07:17:42.394Z,5.10
2023-03-26T07:20:11.202Z,3.55
2023-03-26T07:22:39.256Z,5.88
2023-03-26T07:25:08.336Z,8.60
2023-03-26T07:27:38.646Z,6.65
2023-03-26T07:30:09.643Z,8.85
2023-03-26T07:32:43.550Z,4.30
2023-03-26T07:35:15.078Z,5.43
2023-03-26T07:37:51.590Z,6.05
2023-03-26T07:40:29.831Z,5.32
2023-03-26T07:43:02.984Z,9.85
2023-03-26T07:45:35.189Z,3.35
2023-03-26T07:48:04.755Z,6.18
2023-03-26T07:50:32.500Z,6.43
2023-03-26T07:53:01.196Z,5.28
2023-03-26T07:55:29.275Z,3.75
2023-03-26T07:58:03.797Z,4.10
2023-03-26T08:00:35.438Z,7.75
2023-03-26T08:03:23.502Z,6.03
2023-03-26T08:05:54.733Z,4.60
2023-03-26T08:08:25.922Z,5.78
2023-03-26T08:11:03.214Z,6.25
2023-03-26T08:13:37.309Z,5.97
2023-03-26T08:16:09.108Z,6.95
2023-03-26T08:18:46.718Z,13.90
2023-03-26T08:21:18.096Z,9.07
2023-03-26T08:23:55.145Z,4.78
2023-03-26T08:26:29.657Z,5.72
2023-03-26T08:29:06.490Z,7.45
2023-03-26T08:31:36.190Z,11.43
2023-03-26T08:34:05.099Z,4.07
2023-03-26T08:36:32.844Z,5.90
2023-03-26T08:39:00.430Z,3.75
2023-03-26T08:42:01.491Z,12.77
2023-03-26T08:44:59.862Z,5.78
2023-03-26T08:47:57.069Z,5.07
2023-03-26T08:50:46.601Z,4.72
2023-03-26T08:53:28.639Z,8.77
2023-03-26T08:58:54.369Z,10.50
2023-03-26T09:02:03.492Z,5.63
2023-03-26T09:04:42.742Z,4.43
2023-03-26T09:07:31.424Z,10.32
2023-03-26T09:10:28.759Z,5.25
2023-03-26T09:13:12.507Z,4.90
2023-03-26T09:16:06.667Z,5.93
2023-03-26T09:19:15.015Z,7.03
2023-03-26T09:22:09.926Z,5.40
2023-03-26T09:24:57.131Z,8.65
2023-03-26T09:27:48.050Z,7.90
2023-03-26T09:30:33.698Z,8.05
2023-03-26T09:33:22.872Z,7.35
2023-03-26T09:35:55.700Z,8.50
2023-03-26T09:38:37.395Z,6.30
2023-03-26T09:41:11.049Z,5.97
2023-03-26T09:44:19.330Z,6.57
2023-03-26T09:46:55.674Z,5.13
2023-03-26T09:49:30.913Z,4.35
2023-03-26T09:52:17.728Z,7.32
2023-03-26T09:55:02.831Z,8.20
2023-03-26T09:57:45.775Z,3.97
2023-03-26T10:00:22.396Z,8.02
2023-03-26T10:03:00.455Z,10.35
2023-03-26T10:05:34.305Z,9.88
2023-03-26T10:08:14.572Z,10.27
2023-03-26T10:10:48.170Z,4.80
2023-03-26T10:13:27.213Z,8.20
2023-03-26T10:16:04.135Z,6.25
2023-03-26T10:18:38.808Z,7.90
2023-03-26T10:21:08.569Z,6.78
2023-03-26T10:23:43.611Z,6.78
2023-03-26T10:26:36.612Z,5.93
2023-03-26T10:29:24.944Z,5.97
2023-03-26T10:31:55.789Z,6.68
2023-03-26T10:34:32.683Z,4.85
2023-03-26T10:37:08.531Z,5.47
2023-03-26T10:39:50.886Z,6.45
2023-03-26T10:42:34.652Z,5.85
2023-03-26T10:45:14.634Z,4.30
2023-03-26T10:48:17.651Z,5.43
2023-03-26T10:50:53.928Z,8.07
2023-03-26T10:53:32.214Z,4.40
2023-03-26T10:56:07.459Z,5.63
2023-03-26T10:58:48.330Z,5.95
2023-03-26T11:01:25.934Z,3.50
2023-03-26T11:04:04.562Z,7.28
2023-03-26T11:06:35.856Z,2.70
2023-03-26T11:09:12.255Z,4.63
2023-03-26T11:11:45.127Z,5.28
2023-03-26T11:14:27.864Z,3.40
2023-03-26T11:17:06.783Z,6.13
2023-03-26T11:19:37.916Z,3.83
2023-03-26T11:22:14.832Z,5.10
2023-03-26T11:25:04.495Z,5.32
2023-03-26T11:27:43.309Z,3.90
2023-03-26T11:30:23.168Z,4.63
2023-03-26T11:32:54.620Z,5.78
2023-03-26T11:35:40.462Z,5.40
2023-03-26T11:38:15.315Z,5.75
2023-03-26T11:40:46.773Z,4.10
2023-03-26T11:43:17.150Z,3.33
2023-03-26T11:45:46.571Z,3.72
2023-03-26T11:48:19.385Z,4.03
2023-03-26T11:50:49.762Z,4.80
2023-03-26T11:53:19.357Z,4.53
2023-03-26T11:55:49.674Z,5.88
2023-03-26T11:58:25.077Z,3.28
2023-03-26T12:00:54.169Z,5.90
2023-03-26T12:03:23.151Z,4.53
2023-03-26T12:05:53.569Z,4.97
2023-03-26T12:08:23.057Z,4.55
2023-03-26T12:11:01.913Z,4.35
2023-03-26T12:13:35.844Z,3.67
2023-03-26T12:16:08.497Z,4.93
2023-03-26T12:18:38.468Z,6.05
2023-03-26T12:21:09.227Z,6.97
2023-03-26T12:23:45.746Z,6.68
2023-03-26T12:26:17.388Z,4.82
2023-03-26T12:28:46.213Z,5.80
2023-03-26T12:31:18.064Z,6.28
2023-03-26T12:36:23.238Z,5.45
2023-03-26T12:39:16.426Z,2.90
2023-03-26T12:43:19.840Z,6.20
2023-03-26T12:44:46.166Z,5.22
2023-03-26T12:47:58.246Z,2.97
2023-03-26T12:50:14.450Z,3.55
2023-03-26T12:52:53.714Z,7.00
2023-03-26T12:55:35.456Z,5.80
2023-03-26T12:58:13.903Z,7.22
2023-03-26T13:00:50.095Z,4.20
2023-03-26T13:03:31.786Z,4.25
2023-03-26T13:06:10.064Z,2.10
2023-03-26T13:09:05.032Z,4.78
2023-03-26T13:11:39.369Z,2.80
2023-03-26T13:14:34.373Z,5.18
2023-03-26T13:17:05.853Z,1.92
2023-03-26T13:19:37.526Z,5.50
2023-03-26T13:22:18.661Z,4.60
2023-03-26T13:24:54.334Z,5.83
2023-03-26T13:27:32.619Z,3.60
2023-03-26T13:30:04.679Z,3.63
2023-03-26T13:32:41.029Z,3.58
2023-03-26T13:35:15.262Z,4.30
2023-03-26T13:37:49.670Z,4.50
2023-03-26T13:40:25.544Z,2.53
2023-03-26T13:43:07.721Z,3.88
2023-03-26T13:45:46.247Z,4.07
2023-03-26T13:48:18.514Z,4.60
2023-03-26T13:50:59.404Z,4.32
2023-03-26T13:53:30.959Z,2.88
2023-03-26T13:55:59.412Z,2.90
2023-03-26T13:58:34.812Z,3.38
2023-03-26T14:01:05.611Z,3.60
2023-03-26T14:03:40.881Z,3.45
2023-03-26T14:06:14.386Z,3.85
2023-03-26T14:08:46.059Z,1.85
2023-03-26T14:11:17.250Z,3.97
2023-03-26T14:13:48.701Z,3.85
2023-03-26T14:16:19.135Z,5.35
2023-03-26T14:18:50.344Z,2.97
2023-03-26T14:21:34.641Z,5.70
2023-03-26T14:24:20.130Z,5.45
2023-03-26T14:27:15.039Z,6.22
2023-03-26T14:29:56.557Z,5.53
2023-03-26T14:32:33.926Z,4.18
2023-03-26T14:35:13.185Z,6.50
2023-03-26T14:38:29.775Z,3.78
2023-03-26T14:41:06.236Z,4.03
2023-03-26T14:44:08.026Z,5.55
2023-03-26T14:46:41.788Z,4.53
2023-03-26T14:49:31.986Z,4.15
2023-03-26T14:52:03.588Z,5.25
2023-03-26T14:54:33.491Z,4.45
2023-03-26T14:57:18.924Z,4.13
2023-03-26T15:00:26.392Z,4.68
2023-03-26T15:03:21.104Z,8.00
2023-03-26T15:06:04.428Z,5.80
2023-03-26T15:09:07.185Z,5.78
2023-03-26T15:11:38.545Z,10.30
2023-03-26T15:14:40.912Z,4.13
2023-03-26T15:17:44.962Z,5.63
2023-03-26T15:20:45.389Z,5.60
2023-03-26T15:23:47.751Z,7.95
2023-03-26T15:29:11.821Z,3.40
2023-03-26T15:32:02.355Z,5.53
2023-03-26T15:34:42.435Z,5.30
2023-03-26T15:37:26.571Z,2.00
2023-03-26T15:40:08.905Z,4.03
2023-03-26T15:42:45.640Z,4.90
2023-03-26T15:45:35.106Z,4.82
2023-03-26T15:48:31.484Z,9.10
2023-03-26T15:51:08.614Z,6.80
2023-03-26T15:53:41.375Z,7.13
2023-03-26T15:56:16.037Z,6.18
2023-03-26T15:58:49.328Z,4.68
2023-03-26T16:01:26.841Z,6.30
2023-03-26T16:04:01.571Z,4.03
2023-03-26T16:06:31.901Z,6.03
2023-03-26T16:09:09.461Z,6.53
2023-03-26T16:11:50.550Z,4.80
2023-03-26T16:14:21.488Z,5.80
2023-03-26T16:16:54.103Z,8.15
2023-03-26T16:19:54.189Z,7.18
2023-03-26T16:22:43.778Z,4.65
2023-03-26T16:25:30.390Z,8.48
2023-03-26T16:28:22.181Z,5.70
2023-03-26T16:31:35.702Z,5.93
2023-03-26T16:34:29.129Z,6.72
2023-03-26T16:36:59.953Z,6.13
2023-03-26T16:39:39.951Z,7.47
2023-03-26T16:42:33.951Z,10.40
2023-03-26T16:45:12.375Z,6.47
2023-03-26T16:47:44.729Z,5.70
2023-03-26T16:50:19.194Z,7.65
2023-03-26T16:52:52.133Z,5.03
2023-03-26T16:55:24.389Z,5.47
2023-03-26T16:57:56.245Z,5.20
2023-03-26T17:02:59.939Z,9.63
2023-03-26T17:05:36.659Z,9.85
2023-03-26T17:08:13.558Z,7.28
2023-03-26T17:10:42.922Z,7.68
2023-03-26T17:13:12.904Z,7.32
2023-03-26T17:15:45.287Z,7.45
2023-03-26T17:18:29.350Z,7.95
2023-03-26T17:21:01.543Z,5.70
2023-03-26T17:23:40.072Z,4.55
2023-03-26T17:26:13.234Z,6.35
2023-03-26T17:29:05.543Z,5.57
2023-03-26T17:31:41.170Z,9.35
2023-03-26T17:34:46.583Z,10.10
2023-03-26T17:37:32.121Z,4.00
2023-03-26T17:40:32.551Z,4.50
2023-03-26T17:43:06.290Z,7.00
2023-03-26T17:45:37.333Z,8.18
2023-03-26T17:48:10.036Z,4.70
2023-03-26T17:50:44.185Z,8.00
2023-03-26T17:53:18.842Z,10.70
2023-03-26T17:55:50.134Z,7.00
2023-03-26T17:58:24.779Z,6.20
2023-03-26T18:00:56.879Z,6.45
2023-03-26T18:03:31.159Z,5.90
2023-03-26T18:06:05.316Z,7.53
2023-03-26T18:08:54.992Z,9.27
2023-03-26T18:11:50.869Z,7.13
2023-03-26T18:14:55.885Z,9.45
2023-03-26T18:17:25.080Z,12.18
2023-03-26T18:19:54.326Z,9.18
2023-03-26T18:22:24.656Z,6.68
2023-03-26T18:24:52.937Z,9.25
2023-03-26T18:27:23.615Z,4.95
2023-03-26T18:30:02.516Z,9.07
2023-03-26T18:32:33.684Z,6.43
2023-03-26T18:35:13.322Z,5.97
2023-03-26T18:37:44.293Z,5.15
2023-03-26T18:40:16.762Z,4.83
2023-03-26T18:42:47.094Z,10.55
2023-03-26T18:45:27.274Z,8.13
2023-03-26T18:47:56.394Z,9.52
2023-03-26T18:50:27.062Z,8.10
2023-03-26T18:52:57.333Z,7.15
2023-03-26T18:55:27.762Z,5.50
2023-03-26T18:57:57.130Z,6.72
2023-03-26T19:00:27.817Z,10.07
2023-03-26T19:03:03.334Z,5.72
2023-03-26T19:05:32.243Z,8.05
2023-03-26T19:08:01.167Z,5.60
2023-03-26T19:10:29.102Z,11.13
2023-03-26T19:12:58.818Z,5.72
2023-03-26T19:15:28.088Z,3.95
2023-03-26T19:17:59.794Z,9.68
2023-03-26T19:20:29.471Z,8.90
2023-03-26T19:22:58.031Z,8.23
2023-03-26T19:25:28.901Z,10.25
2023-03-26T19:27:57.864Z,12.13
2023-03-26T19:30:31.036Z,15.77
2023-03-26T19:33:12.548Z,11.05
2023-03-26T19:35:42.146Z,9.93
2023-03-26T19:38:38.949Z,10.90
2023-03-26T19:41:06.592Z,12.63
2023-03-26T19:43:35.442Z,15.48
2023-03-26T19:46:03.094Z,11.38
2023-03-26T19:48:46.724Z,10.02
2023-03-26T19:51:21.082Z,13.82
2023-03-26T19:53:51.261Z,12.80
2023-03-26T19:56:20.947Z,12.70
2023-03-26T19:58:50.134Z,9.43
2023-03-26T20:01:19.553Z,14.18
2023-03-26T20:03:50.663Z,8.57
2023-03-26T20:06:23.674Z,13.07
2023-03-26T20:08:56.066Z,19.60
2023-03-26T20:11:25.366Z,12.82
2023-03-26T20:13:54.172Z,14.73
2023-03-26T20:16:25.501Z,12.77
2023-03-26T20:18:53.726Z,14.98
2023-03-26T20:21:21.813Z,12.80
2023-03-26T20:23:49.513Z,13.27
2023-03-26T20:26:18.602Z,18.27
2023-03-26T20:28:48.325Z,17.42
2023-03-26T20:31:25.145Z,15.65
2023-03-26T20:33:54.378Z,15.15
2023-03-26T20:36:33.474Z,18.13
2023-03-26T20:39:05.635Z,20.92
2023-03-26T20:41:34.090Z,12.77
2023-03-26T20:44:03.785Z,15.98
2023-03-26T20:46:33.258Z,23.90
2023-03-26T20:49:00.963Z,17.25
2023-03-26T20:51:29.142Z,16.73
2023-03-26T20:53:57.000Z,24.55
2023-03-26T20:56:24.491Z,18.50
2023-03-26T20:59:09.975Z,17.38
2023-03-26T21:01:40.204Z,25.10
2023-03-26T21:04:07.971Z,19.90
2023-03-26T21:06:35.747Z,21.42
2023-03-26T21:09:04.878Z,19.73
2023-03-26T21:11:40.930Z,17.70
2023-03-26T21:14:11.865Z,12.65
2023-03-26T21:16:41.262Z,17.85
2023-03-26T21:19:10.218Z,14.95
2023-03-26T21:21:47.645Z,14.85
2023-03-26T21:24:20.643Z,18.02
2023-03-26T21:26:50.969Z,16.23
2023-03-26T21:29:18.999Z,17.20
2023-03-26T21:31:48.577Z,15.40
2023-03-26T21:34:17.169Z,13.70
2023-03-26T21:36:45.254Z,17.60
2023-03-26T21:39:13.321Z,21.75
2023-03-26T21:41:45.741Z,9.90
2023-03-26T21:44:14.284Z,17.25
2023-03-26T21:46:43.545Z,20.38
2023-03-26T21:49:13.650Z,11.20
2023-03-26T21:51:42.885Z,18.23
2023-03-26T21:54:22.201Z,14.63
2023-03-26T21:56:59.295Z,23.02
2023-03-26T21:59:32.891Z,21.17
2023-03-26T22:02:05.771Z,15.75
2023-03-26T22:04:37.885Z,15.90
2023-03-26T22:07:12.561Z,15.30
2023-03-26T22:09:40.858Z,12.43
2023-03-26T22:12:08.667Z,14.38
2023-03-26T22:14:36.192Z,12.60
2023-03-26T22:17:04.216Z,18.13
2023-03-26T22:19:32.001Z,18.63
2023-03-26T22:22:01.524Z,17.83
2023-03-26T22:24:28.987Z,13.20
2023-03-26T22:26:56.626Z,14.40
2023-03-26T22:29:24.812Z,9.93
2023-03-26T22:31:52.423Z,14.38
2023-03-26T22:34:21.244Z,12.35
2023-03-26T22:36:48.774Z,13.98
2023-03-26T22:39:18.229Z,15.43
2023-03-26T22:41:45.861Z,12.98
2023-03-26T22:44:20.144Z,13.70
2023-03-26T22:46:49.415Z,11.00
2023-03-26T22:49:17.285Z,13.13
2023-03-26T22:51:44.842Z,18.33
2023-03-26T22:54:12.413Z,12.48
2023-03-26T22:56:41.705Z,16.33
2023-03-26T22:59:09.235Z,16.70
2023-03-26T23:01:37.035Z,12.15
2023-03-26T23:04:04.895Z,20.25
2023-03-26T23:06:32.725Z,14.25
2023-03-26T23:09:01.063Z,13.93
2023-03-26T23:11:30.603Z,7.85
2023-03-26T23:13:59.551Z,15.40
2023-03-26T23:16:27.272Z,16.95
2023-03-26T23:18:54.801Z,16.38
2023-03-26T23:21:23.213Z,16.27
2023-03-26T23:23:51.620Z,11.00
2023-03-26T23:26:19.115Z,8.32
2023-03-26T23:28:46.675Z,10.27
2023-03-26T23:31:15.517Z,11.35
2023-03-26T23:33:46.172Z,9.63
2023-03-26T23:36:17.675Z,12.93
2023-03-26T23:38:47.664Z,12.90
2023-03-26T23:41:16.545Z,8.63
2023-03-26T23:43:54.137Z,6.93
2023-03-26T23:46:25.463Z,7.55
2023-03-26T23:48:53.594Z,9.18
2023-03-26T23:51:22.440Z,9.60
2023-03-26T23:53:50.291Z,7.10
2023-03-26T23:56:18.232Z,9.20
2023-03-26T23:58:45.898Z,12.50
